CYCB

Cambridge Bay Airport

Cambridge Bay, Canada
METAR CYCB 151200Z 28008KT 13SM IC FEW024 M28/M32 A3028 RMK SC2 FROIN SLP260
Observed Flight Rules
Nov-15 @ 12:00 UTC (43 minutes ago) Visual Flight Rules
Wind Visibility Clouds Conditions
280° at 8 knots 13 miles
  • Few at 2,400' AGL
  • Ice crystals
Temperatures Readings
Current -28°C / -18°F
Dewpoint -32°C / -26°F
Humidity 69%
Altimeter 30.28" Hg
Pressure 1026 hPa
Elevation 27
METAR CYCB 151200Z 28008KT 13SM IC FEW024 M28/M32 A3028 RMK SC2 FROIN SLP260
Observed Flight Rules
Nov-15 @ 12:00 UTC
(43 minutes ago)
VFR
Wind Visibility
280° at 8 knots 13 miles
Clouds
  • Few at 2,400' AGL
Conditions
  • Ice crystals
Temperature Dewpoint
-28°C / -18°F -32°C / -26°F
Humidity Altimeter Pressure
69% 30.28" Hg 1026 hPa